createdAt,value
2017-11-21T00:01:07.550Z,7.23
2017-11-21T00:03:35.176Z,7.13
2017-11-21T00:06:03.400Z,7.03
2017-11-21T00:08:30.884Z,6.60
2017-11-21T00:10:59.156Z,6.80
2017-11-21T00:13:26.602Z,8.03
2017-11-21T00:15:54.051Z,8.50
2017-11-21T00:18:21.582Z,8.80
2017-11-21T00:20:49.801Z,9.57
2017-11-21T00:23:17.308Z,9.50
2017-11-21T00:25:44.792Z,11.67
2017-11-21T00:28:12.261Z,11.80
2017-11-21T00:30:39.852Z,12.07
2017-11-21T00:33:07.306Z,12.00
2017-11-21T00:35:34.753Z,12.90
2017-11-21T00:38:02.268Z,13.97
2017-11-21T00:40:29.720Z,12.90
2017-11-21T00:42:57.181Z,14.67
2017-11-21T00:45:24.681Z,15.20
2017-11-21T00:47:52.147Z,14.90
2017-11-21T00:50:19.623Z,16.57
2017-11-21T00:52:47.852Z,16.37
2017-11-21T00:55:15.302Z,14.80
2017-11-21T00:57:42.817Z,18.83
2017-11-21T01:00:10.310Z,17.13
2017-11-21T01:02:37.778Z,16.50
2017-11-21T01:05:05.234Z,15.27
2017-11-21T01:07:32.754Z,18.40
2017-11-21T01:10:01.032Z,19.07
2017-11-21T01:12:28.490Z,16.00
2017-11-21T01:14:56.791Z,17.43
2017-11-21T01:17:24.262Z,16.33
2017-11-21T01:19:51.773Z,17.00
2017-11-21T01:22:19.272Z,17.87
2017-11-21T01:24:46.730Z,19.63
2017-11-21T01:27:14.247Z,17.70
2017-11-21T01:29:41.752Z,17.13
2017-11-21T01:32:10.016Z,17.37
2017-11-21T01:34:38.248Z,19.07
2017-11-21T01:37:05.717Z,18.47
2017-11-21T01:39:33.223Z,17.20
2017-11-21T01:42:01.481Z,19.60
2017-11-21T01:44:28.977Z,21.03
2017-11-21T01:46:57.263Z,21.17
2017-11-21T01:49:24.770Z,18.77
2017-11-21T01:51:52.227Z,17.27
2017-11-21T01:54:19.705Z,18.70
2017-11-21T01:56:47.190Z,18.93
2017-11-21T01:59:14.645Z,16.30
2017-11-21T02:01:42.144Z,18.10
2017-11-21T02:04:10.361Z,17.87
2017-11-21T02:06:37.851Z,17.13
2017-11-21T02:09:05.313Z,18.20
2017-11-21T02:11:32.821Z,14.27
2017-11-21T02:14:01.030Z,16.10
2017-11-21T02:16:28.511Z,16.70
2017-11-21T02:18:56.003Z,16.60
2017-11-21T02:21:24.231Z,14.77
2017-11-21T02:23:51.754Z,16.50
2017-11-21T02:26:19.233Z,14.97
2017-11-21T02:28:46.701Z,14.80
2017-11-21T02:31:14.205Z,14.80
2017-11-21T02:33:41.681Z,14.50
2017-11-21T02:36:09.140Z,14.07
2017-11-21T02:38:36.614Z,13.40
2017-11-21T02:41:04.884Z,15.47
2017-11-21T02:43:32.347Z,15.10
2017-11-21T02:45:59.795Z,13.73
2017-11-21T02:48:27.312Z,14.20
2017-11-21T02:50:54.814Z,11.97
2017-11-21T02:53:22.327Z,13.37
2017-11-21T02:55:49.783Z,16.00
2017-11-21T02:58:18.018Z,13.97
2017-11-21T03:00:45.532Z,13.87
2017-11-21T03:03:13.195Z,14.60
2017-11-21T03:05:41.484Z,14.60
2017-11-21T03:08:08.945Z,16.30
2017-11-21T03:10:36.409Z,17.70
2017-11-21T03:13:03.912Z,17.60
2017-11-21T03:15:31.373Z,21.80
2017-11-21T03:17:58.862Z,19.67
2017-11-21T03:20:26.328Z,20.27
2017-11-21T03:22:53.832Z,20.80
2017-11-21T03:25:21.293Z,21.40
2017-11-21T03:27:48.778Z,24.17
2017-11-21T03:30:16.312Z,23.20
2017-11-21T03:32:43.734Z,24.30
2017-11-21T03:35:11.230Z,25.07
2017-11-21T03:37:38.697Z,25.47
2017-11-21T03:40:06.206Z,24.70
2017-11-21T03:42:33.664Z,28.07
2017-11-21T03:45:01.224Z,26.57
2017-11-21T03:47:29.483Z,25.03
2017-11-21T03:49:57.199Z,26.17
2017-11-21T03:52:24.727Z,26.00
2017-11-21T03:54:52.222Z,25.97
2017-11-21T03:57:20.464Z,25.30
2017-11-21T03:59:47.936Z,24.90
2017-11-21T04:02:15.433Z,23.43
2017-11-21T04:04:42.897Z,23.80
2017-11-21T04:07:10.431Z,23.27
2017-11-21T04:09:37.897Z,26.67
2017-11-21T04:12:05.366Z,22.97
2017-11-21T04:14:32.820Z,20.00
2017-11-21T04:17:00.343Z,23.50
2017-11-21T04:19:27.792Z,21.80
2017-11-21T04:21:55.247Z,22.60
2017-11-21T04:24:23.467Z,21.13
2017-11-21T04:26:51.110Z,19.97
2017-11-21T04:29:18.648Z,22.77
2017-11-21T04:31:46.081Z,19.40
2017-11-21T04:34:13.573Z,19.70
2017-11-21T04:36:41.209Z,18.67
2017-11-21T04:39:08.683Z,19.07
2017-11-21T04:41:36.191Z,19.20
2017-11-21T04:44:03.696Z,20.70
2017-11-21T04:46:31.191Z,19.90
2017-11-21T04:48:58.740Z,19.97
2017-11-21T04:51:26.148Z,20.37
2017-11-21T04:53:53.629Z,20.27
2017-11-21T04:56:21.114Z,20.57
2017-11-21T04:58:48.604Z,24.43
2017-11-21T05:01:16.072Z,23.87
2017-11-21T05:03:43.552Z,23.40
2017-11-21T05:06:11.797Z,23.40
2017-11-21T05:08:39.314Z,21.27
2017-11-21T05:11:06.833Z,22.17
2017-11-21T05:13:34.300Z,24.93
2017-11-21T05:16:01.835Z,25.20
2017-11-21T05:18:29.280Z,23.67
2017-11-21T05:20:56.919Z,23.77
2017-11-21T05:23:24.370Z,24.67
2017-11-21T05:25:52.632Z,24.00
2017-11-21T05:28:20.119Z,25.73
2017-11-21T05:30:48.363Z,25.00
2017-11-21T05:33:15.821Z,26.40
2017-11-21T05:35:43.342Z,25.93
2017-11-21T05:38:11.236Z,27.30
2017-11-21T05:40:38.626Z,27.20
2017-11-21T05:43:06.158Z,27.50
2017-11-21T05:45:33.611Z,27.63
2017-11-21T05:48:01.839Z,28.97
2017-11-21T05:50:29.290Z,26.63
2017-11-21T05:52:56.906Z,25.20
2017-11-21T05:55:24.416Z,26.77
2017-11-21T05:57:51.869Z,28.60
2017-11-21T06:00:19.387Z,26.87
2017-11-21T06:02:47.091Z,26.43
2017-11-21T06:05:14.581Z,28.70
2017-11-21T06:07:42.042Z,25.97
2017-11-21T06:10:09.526Z,31.30
2017-11-21T06:12:37.033Z,36.60
2017-11-21T06:15:04.665Z,40.53
2017-11-21T06:17:32.194Z,39.80
2017-11-21T06:19:59.714Z,33.20
2017-11-21T06:22:27.201Z,30.67
2017-11-21T06:24:54.714Z,23.40
2017-11-21T06:27:22.181Z,23.57
2017-11-21T06:29:49.671Z,20.90
2017-11-21T06:32:17.924Z,22.50
2017-11-21T06:34:45.392Z,21.07
2017-11-21T06:37:12.896Z,20.63
2017-11-21T06:39:40.382Z,18.00
2017-11-21T06:42:07.857Z,19.27
2017-11-21T06:44:35.351Z,18.27
2017-11-21T06:47:03.571Z,17.77
2017-11-21T06:49:31.049Z,16.70
2017-11-21T06:51:58.543Z,15.80
2017-11-21T06:54:26.010Z,15.20
2017-11-21T06:56:53.473Z,16.30
2017-11-21T06:59:20.929Z,19.37
2017-11-21T07:01:48.630Z,15.70
2017-11-21T07:04:16.156Z,13.67
2017-11-21T07:06:43.622Z,15.40
2017-11-21T07:09:11.148Z,14.47
2017-11-21T07:11:38.651Z,14.17
2017-11-21T07:14:06.134Z,11.90
2017-11-21T07:16:33.581Z,13.43
2017-11-21T07:19:01.073Z,12.73
2017-11-21T07:21:28.558Z,13.37
2017-11-21T07:23:56.070Z,12.40
2017-11-21T07:26:23.558Z,13.57
2017-11-21T07:28:51.095Z,13.20
2017-11-21T07:31:18.596Z,12.33
2017-11-21T07:33:46.867Z,11.47
2017-11-21T07:36:16.735Z,12.00
2017-11-21T07:38:44.286Z,11.07
2017-11-21T07:41:11.767Z,11.73
2017-11-21T07:43:39.207Z,11.97
2017-11-21T07:46:06.748Z,14.10
2017-11-21T07:48:34.167Z,14.70
2017-11-21T07:51:01.656Z,14.90
2017-11-21T07:53:29.946Z,16.47
2017-11-21T07:55:57.448Z,18.70
2017-11-21T07:58:24.960Z,19.00
2017-11-21T08:00:53.233Z,20.47
2017-11-21T08:03:20.723Z,19.80
2017-11-21T08:05:48.996Z,18.60
2017-11-21T08:08:16.576Z,20.80
2017-11-21T08:10:44.030Z,19.50
2017-11-21T08:13:11.540Z,18.37
2017-11-21T08:15:39.037Z,21.03
2017-11-21T08:18:07.305Z,21.53
2017-11-21T08:20:34.827Z,19.20
2017-11-21T08:23:02.285Z,17.37
2017-11-21T08:25:29.750Z,19.87
2017-11-21T08:27:57.249Z,19.37
2017-11-21T08:30:24.798Z,20.67
2017-11-21T08:32:52.259Z,20.60
2017-11-21T08:35:19.764Z,21.17
2017-11-21T08:37:47.233Z,21.47
2017-11-21T08:40:15.477Z,19.67
2017-11-21T08:42:43.000Z,20.27
2017-11-21T08:45:10.489Z,21.27
2017-11-21T08:47:37.982Z,19.97
2017-11-21T08:50:06.218Z,18.50
2017-11-21T08:52:33.661Z,20.90
2017-11-21T08:55:01.183Z,19.00
2017-11-21T08:57:28.631Z,20.37
2017-11-21T08:59:56.103Z,19.70
2017-11-21T09:02:23.612Z,18.80
2017-11-21T09:04:51.102Z,19.27
2017-11-21T09:07:18.568Z,17.67
2017-11-21T09:09:46.051Z,18.77
2017-11-21T09:12:13.572Z,21.60
2017-11-21T09:14:41.038Z,19.47
2017-11-21T09:17:08.501Z,18.43
2017-11-21T09:19:35.992Z,18.33
2017-11-21T09:22:03.467Z,18.40
2017-11-21T09:24:31.017Z,20.93
2017-11-21T09:26:58.471Z,16.97
2017-11-21T09:29:25.980Z,15.73
2017-11-21T09:31:54.246Z,16.40
2017-11-21T09:34:21.785Z,17.03
2017-11-21T09:36:49.248Z,16.17
2017-11-21T09:39:16.853Z,16.07
2017-11-21T09:41:44.353Z,14.90
2017-11-21T09:44:11.861Z,17.57
2017-11-21T09:46:40.101Z,15.57
2017-11-21T09:49:07.595Z,14.00
2017-11-21T09:51:35.290Z,14.57
2017-11-21T09:54:02.733Z,14.17
2017-11-21T09:56:30.221Z,13.30
2017-11-21T09:58:57.713Z,13.20
2017-11-21T10:01:25.181Z,11.80
2017-11-21T10:03:52.714Z,10.20
2017-11-21T10:06:20.168Z,9.43
2017-11-21T10:08:47.662Z,9.90
2017-11-21T10:11:15.870Z,8.37
2017-11-21T10:13:43.381Z,8.20
2017-11-21T10:16:10.853Z,7.57
2017-11-21T10:18:38.328Z,6.83
2017-11-21T10:21:05.808Z,6.07
2017-11-21T10:23:33.304Z,5.23
2017-11-21T10:26:01.915Z,5.13
2017-11-21T10:28:29.501Z,4.17
2017-11-21T10:30:57.728Z,3.37
2017-11-21T10:33:25.966Z,2.67
2017-11-21T10:35:53.436Z,2.40
2017-11-21T10:38:20.895Z,2.50
2017-11-21T10:40:48.445Z,3.43
2017-11-21T10:43:15.870Z,2.70
2017-11-21T10:45:43.390Z,1.87
2017-11-21T10:48:11.630Z,1.50
2017-11-21T10:50:39.872Z,1.90
2017-11-21T10:53:07.382Z,2.40
2017-11-21T10:55:34.858Z,2.90
2017-11-21T10:58:02.360Z,3.03
2017-11-21T11:00:29.802Z,2.43
2017-11-21T11:02:57.282Z,8.20
2017-11-21T11:05:24.729Z,11.60
2017-11-21T11:07:52.222Z,9.80
2017-11-21T11:10:19.678Z,4.00
2017-11-21T11:12:47.186Z,3.30
2017-11-21T11:15:14.639Z,3.80
2017-11-21T11:17:42.107Z,2.87
2017-11-21T11:20:09.637Z,1.73
2017-11-21T11:22:37.879Z,1.90
2017-11-21T11:25:05.360Z,2.10
2017-11-21T11:27:32.842Z,1.80
2017-11-21T11:30:00.332Z,1.70
2017-11-21T11:32:27.800Z,1.97
2017-11-21T11:34:55.271Z,2.27
2017-11-21T11:37:22.756Z,2.20
2017-11-21T11:39:50.214Z,2.20
2017-11-21T11:42:17.757Z,2.60
2017-11-21T11:44:45.336Z,2.00
2017-11-21T11:47:13.545Z,2.30
2017-11-21T11:49:41.811Z,2.53
2017-11-21T11:52:09.287Z,2.57
2017-11-21T11:54:36.771Z,2.90
2017-11-21T11:57:05.080Z,4.00
2017-11-21T11:59:32.570Z,3.63
2017-11-21T12:02:00.010Z,3.40
2017-11-21T12:04:27.484Z,3.67
2017-11-21T12:06:55.020Z,3.10
2017-11-21T12:09:22.506Z,4.00
2017-11-21T12:11:50.005Z,3.83
2017-11-21T12:14:17.580Z,4.60
2017-11-21T12:16:45.001Z,4.27
2017-11-21T12:19:12.526Z,7.47
2017-11-21T12:21:39.963Z,5.23
2017-11-21T12:24:07.494Z,6.73
2017-11-21T12:26:34.961Z,6.17
2017-11-21T12:29:02.452Z,6.63
2017-11-21T12:31:29.972Z,6.87
2017-11-21T12:33:57.457Z,7.67
2017-11-21T12:36:24.904Z,6.90
2017-11-21T12:38:52.501Z,6.80
2017-11-21T12:41:19.952Z,6.77
2017-11-21T12:43:47.460Z,7.00
2017-11-21T12:46:15.717Z,7.40
2017-11-21T12:48:43.180Z,7.03
2017-11-21T12:51:10.780Z,7.70
2017-11-21T12:53:38.186Z,8.07
2017-11-21T12:56:05.649Z,8.87
2017-11-21T12:58:33.153Z,8.27
2017-11-21T13:01:00.603Z,7.90
2017-11-21T13:03:29.598Z,8.00
2017-11-21T13:05:57.074Z,9.47
2017-11-21T13:08:25.336Z,8.43
2017-11-21T13:10:52.998Z,9.77
2017-11-21T13:13:20.474Z,7.77
2017-11-21T13:15:48.730Z,7.80
2017-11-21T13:18:16.175Z,9.30
2017-11-21T13:20:43.708Z,10.10
2017-11-21T13:23:11.223Z,9.57
2017-11-21T13:25:38.693Z,10.40
2017-11-21T13:28:06.142Z,9.93
2017-11-21T13:30:33.631Z,11.17
2017-11-21T13:33:01.208Z,10.23
2017-11-21T13:35:29.459Z,10.27
2017-11-21T13:37:56.949Z,9.70
2017-11-21T13:40:25.291Z,9.93
2017-11-21T13:42:52.802Z,10.73
2017-11-21T13:45:21.066Z,9.50
2017-11-21T13:47:48.573Z,10.17
2017-11-21T13:50:16.092Z,10.97
2017-11-21T13:52:43.614Z,10.30
2017-11-21T13:55:11.827Z,10.40
2017-11-21T13:57:39.380Z,11.70
2017-11-21T14:00:06.879Z,11.50
2017-11-21T14:02:35.144Z,12.67
2017-11-21T14:05:02.647Z,11.17
2017-11-21T14:07:30.136Z,11.63
2017-11-21T14:09:57.641Z,8.63
2017-11-21T14:12:25.945Z,11.50
2017-11-21T14:14:53.462Z,12.00
2017-11-21T14:17:20.995Z,10.43
2017-11-21T14:19:49.252Z,12.93
2017-11-21T14:22:17.529Z,10.90
2017-11-21T14:24:45.748Z,10.60
2017-11-21T14:27:13.313Z,8.67
2017-11-21T14:29:40.797Z,10.90
2017-11-21T14:32:08.270Z,11.60
2017-11-21T14:34:35.774Z,8.83
2017-11-21T14:37:03.294Z,9.47
2017-11-21T14:39:30.752Z,10.50
2017-11-21T14:41:58.269Z,10.60
2017-11-21T14:44:25.744Z,10.07
2017-11-21T14:46:53.280Z,10.40
2017-11-21T14:49:21.501Z,9.17
2017-11-21T14:51:49.005Z,9.07
2017-11-21T14:54:17.299Z,9.57
2017-11-21T14:56:44.755Z,9.00
2017-11-21T14:59:13.463Z,8.73
2017-11-21T15:01:41.063Z,9.57
2017-11-21T15:04:08.557Z,9.57
2017-11-21T15:06:36.880Z,8.70
2017-11-21T15:09:04.376Z,9.53
2017-11-21T15:11:32.152Z,10.50
2017-11-21T15:13:59.641Z,11.40
2017-11-21T15:16:27.872Z,11.30
2017-11-21T15:18:55.335Z,9.37
2017-11-21T15:21:23.605Z,11.27
2017-11-21T15:23:51.096Z,11.60
2017-11-21T15:26:18.597Z,11.97
2017-11-21T15:28:46.138Z,12.20
2017-11-21T15:31:13.598Z,12.83
2017-11-21T15:33:41.168Z,11.47
2017-11-21T15:36:08.643Z,13.97
2017-11-21T15:38:36.529Z,14.87
2017-11-21T15:41:04.041Z,12.17
2017-11-21T15:43:31.534Z,14.50
2017-11-21T15:45:59.054Z,14.67
2017-11-21T15:48:26.556Z,15.60
2017-11-21T15:50:54.046Z,16.63
2017-11-21T15:53:21.515Z,16.80
2017-11-21T15:55:49.293Z,18.87
2017-11-21T15:58:16.799Z,16.00
2017-11-21T16:00:44.311Z,18.20
2017-11-21T16:03:12.016Z,18.10
2017-11-21T16:05:40.086Z,17.83
2017-11-21T16:08:08.099Z,16.07
2017-11-21T16:10:35.545Z,18.67
2017-11-21T16:13:03.123Z,20.10
2017-11-21T16:15:30.605Z,17.43
2017-11-21T16:17:58.552Z,19.33
2017-11-21T16:20:26.037Z,21.80
2017-11-21T16:22:54.292Z,19.30
2017-11-21T16:25:21.780Z,19.20
2017-11-21T16:27:49.206Z,18.87
2017-11-21T16:30:16.717Z,18.60
2017-11-21T16:32:44.179Z,18.57
2017-11-21T16:35:11.665Z,18.70
2017-11-21T16:37:39.545Z,20.50
2017-11-21T16:40:07.759Z,21.80
2017-11-21T16:42:35.268Z,20.30
2017-11-21T16:45:03.520Z,20.10
2017-11-21T16:47:31.776Z,21.70
2017-11-21T16:49:59.283Z,20.40
2017-11-21T16:52:27.508Z,20.23
2017-11-21T16:54:55.012Z,22.17
2017-11-21T16:57:23.302Z,21.50
2017-11-21T16:59:51.583Z,19.47
2017-11-21T17:02:19.850Z,21.20
2017-11-21T17:04:48.076Z,21.37
2017-11-21T17:07:15.572Z,19.77
2017-11-21T17:09:43.065Z,21.10
2017-11-21T17:12:10.532Z,19.73
2017-11-21T17:14:43.629Z,20.87
2017-11-21T17:17:11.103Z,20.27
2017-11-21T17:19:38.670Z,19.73
2017-11-21T17:22:07.035Z,18.87
2017-11-21T17:24:34.543Z,21.60
2017-11-21T17:27:02.036Z,21.27
2017-11-21T17:29:29.636Z,18.60
2017-11-21T17:31:57.313Z,20.23
2017-11-21T17:34:24.833Z,18.57
2017-11-21T17:36:52.339Z,20.40
2017-11-21T17:39:20.602Z,18.63
2017-11-21T17:41:48.867Z,19.47
2017-11-21T17:44:16.320Z,18.70
2017-11-21T17:46:43.829Z,17.77
2017-11-21T17:49:11.321Z,18.37
2017-11-21T17:51:38.823Z,19.20
2017-11-21T17:54:06.279Z,16.77
2017-11-21T17:56:33.795Z,18.03
2017-11-21T17:59:01.311Z,17.27
2017-11-21T18:01:28.816Z,17.70
2017-11-21T18:03:56.287Z,17.47
2017-11-21T18:06:23.838Z,18.50
2017-11-21T18:08:51.430Z,16.60
2017-11-21T18:11:18.946Z,20.80
2017-11-21T18:13:47.176Z,19.40
2017-11-21T18:16:14.639Z,18.90
2017-11-21T18:18:42.132Z,20.63
2017-11-21T18:21:09.596Z,19.57
2017-11-21T18:23:37.096Z,18.97
2017-11-21T18:26:04.578Z,17.83
2017-11-21T18:28:32.504Z,17.60
2017-11-21T18:30:59.989Z,17.83
2017-11-21T18:33:27.549Z,17.20
2017-11-21T18:35:55.099Z,17.20
2017-11-21T18:38:22.521Z,17.47
2017-11-21T18:40:50.043Z,16.13
2017-11-21T18:43:18.272Z,16.30
2017-11-21T18:45:45.789Z,18.23
2017-11-21T18:48:13.265Z,15.77
2017-11-21T18:50:40.788Z,18.47
2017-11-21T18:53:09.074Z,18.77
2017-11-21T18:55:36.499Z,17.07
2017-11-21T18:58:04.016Z,16.70
2017-11-21T19:00:31.487Z,17.07
2017-11-21T19:02:58.933Z,16.00
2017-11-21T19:05:26.438Z,17.10
2017-11-21T19:07:53.892Z,15.80
2017-11-21T19:10:21.475Z,16.50
2017-11-21T19:12:49.014Z,16.80
2017-11-21T19:15:16.459Z,17.27
2017-11-21T19:17:44.743Z,17.40
2017-11-21T19:20:12.232Z,16.63
2017-11-21T19:22:39.722Z,14.50
2017-11-21T19:25:07.215Z,16.67
2017-11-21T19:27:35.500Z,16.33
2017-11-21T19:30:03.005Z,16.47
2017-11-21T19:32:30.481Z,15.87
2017-11-21T19:34:57.981Z,14.57
2017-11-21T19:37:25.460Z,16.10
2017-11-21T19:39:52.958Z,16.60
2017-11-21T19:42:20.463Z,16.83
2017-11-21T19:44:48.711Z,13.03
2017-11-21T19:47:16.208Z,14.40
2017-11-21T19:49:44.482Z,15.07
2017-11-21T19:52:11.927Z,14.87
2017-11-21T19:54:39.463Z,15.40
2017-11-21T19:57:06.942Z,14.53
2017-11-21T19:59:35.137Z,13.30
2017-11-21T20:02:02.642Z,15.53
2017-11-21T20:04:30.892Z,14.90
2017-11-21T20:06:58.365Z,13.27
2017-11-21T20:09:25.869Z,15.10
2017-11-21T20:11:53.346Z,14.80
2017-11-21T20:14:20.859Z,14.57
2017-11-21T20:16:48.331Z,14.07
2017-11-21T20:19:16.615Z,15.63
2017-11-21T20:21:44.075Z,14.47
2017-11-21T20:24:11.618Z,14.70
2017-11-21T20:26:39.089Z,14.73
2017-11-21T20:29:06.578Z,14.80
2017-11-21T20:31:38.448Z,13.30
2017-11-21T20:34:05.907Z,13.70
2017-11-21T20:36:34.196Z,14.47
2017-11-21T20:39:02.440Z,13.57
2017-11-21T20:41:29.905Z,14.27
2017-11-21T20:43:57.477Z,13.40
2017-11-21T20:46:24.992Z,12.83
2017-11-21T20:48:52.514Z,13.13
2017-11-21T20:51:19.949Z,13.77
2017-11-21T20:53:47.732Z,12.77
2017-11-21T20:56:15.273Z,11.63
2017-11-21T20:58:42.728Z,12.87
2017-11-21T21:01:10.267Z,13.50
2017-11-21T21:03:37.756Z,13.13
2017-11-21T21:06:05.293Z,12.17
2017-11-21T21:08:32.797Z,12.60
2017-11-21T21:11:00.287Z,11.87
2017-11-21T21:13:27.792Z,12.30
2017-11-21T21:15:55.397Z,13.70
2017-11-21T21:18:22.816Z,11.30
2017-11-21T21:20:50.336Z,11.83
2017-11-21T21:23:17.790Z,11.20
2017-11-21T21:25:45.290Z,11.23
2017-11-21T21:28:12.791Z,11.23
2017-11-21T21:30:40.275Z,9.97
2017-11-21T21:33:07.742Z,11.50
2017-11-21T21:35:35.250Z,10.00
2017-11-21T21:38:02.751Z,10.10
2017-11-21T21:40:30.256Z,11.77
2017-11-21T21:42:58.482Z,10.90
2017-11-21T21:45:25.966Z,11.10
2017-11-21T21:47:53.452Z,10.40
2017-11-21T21:50:21.678Z,10.20
2017-11-21T21:52:49.228Z,10.27
2017-11-21T21:55:17.447Z,11.80
2017-11-21T21:57:44.923Z,10.53
2017-11-21T22:00:12.441Z,8.93
2017-11-21T22:02:39.921Z,11.10
2017-11-21T22:05:07.406Z,10.73
2017-11-21T22:07:34.942Z,11.97
2017-11-21T22:10:02.415Z,10.87
2017-11-21T22:12:29.925Z,9.83
2017-11-21T22:14:58.192Z,10.70
2017-11-21T22:17:26.422Z,12.00
2017-11-21T22:19:53.909Z,9.90
2017-11-21T22:22:21.428Z,11.80
2017-11-21T22:24:48.908Z,10.67
2017-11-21T22:27:16.410Z,9.93
2017-11-21T22:29:44.216Z,10.20
2017-11-21T22:32:11.705Z,10.30
2017-11-21T22:34:39.257Z,10.57
2017-11-21T22:37:06.822Z,10.00
2017-11-21T22:39:34.257Z,9.10
2017-11-21T22:42:07.928Z,10.57
2017-11-21T22:44:35.418Z,9.93
2017-11-21T22:47:03.652Z,9.53
2017-11-21T22:49:31.107Z,10.00
2017-11-21T22:51:58.611Z,9.20
2017-11-21T22:54:26.847Z,8.80
2017-11-21T22:56:54.360Z,9.90
2017-11-21T22:59:21.787Z,9.17
2017-11-21T23:01:49.301Z,9.00
2017-11-21T23:04:17.530Z,8.57
2017-11-21T23:06:45.044Z,10.17
2017-11-21T23:09:12.514Z,9.57
2017-11-21T23:11:40.047Z,9.13
2017-11-21T23:14:07.509Z,8.23
2017-11-21T23:16:35.039Z,8.70
2017-11-21T23:19:02.491Z,9.07
2017-11-21T23:21:29.972Z,8.57
2017-11-21T23:23:57.480Z,7.70
2017-11-21T23:26:24.950Z,8.90
2017-11-21T23:28:52.429Z,8.23
2017-11-21T23:31:19.994Z,8.37
2017-11-21T23:33:47.549Z,8.50
2017-11-21T23:36:14.993Z,8.57
2017-11-21T23:38:43.266Z,8.97
2017-11-21T23:41:10.752Z,9.10
2017-11-21T23:43:38.210Z,7.90
2017-11-21T23:46:05.805Z,7.83
2017-11-21T23:48:33.267Z,8.10
2017-11-21T23:51:00.712Z,7.70
2017-11-21T23:53:28.241Z,8.60
2017-11-21T23:55:55.726Z,7.37
2017-11-21T23:58:23.229Z,7.37
